Calchaqui, Argentina
Current Conditions -  °F | °C
As of 11:00 PM on Thursday 20 Nov 2014 (Local Time) from SUSO Reporting Station
Broken Clouds Broken Clouds  
Wind Chill: 72°   Ceiling: 6700
Heat Index: 72°   Visibility: 6mi
Dew Point: 57°   Wind: 21mph
Humidity: 60%   Direction: 150°SSE
Pressure: 29.88"   Gusts: NA
Location:  29.9°S, 60.3°W
Report Text: SUSO 210200Z 15018KT 9999 SCT027 BKN067 22/14 Q1012
Loading
Personal Weather Stations






























Interactive Weather Map New forecast layout! Learn more

10-Day Weather Forecast

Advertisements
Track Severe Weather on mobile